createdAt,value
2023-03-11T00:00:25.983Z,5.23
2023-03-11T00:03:13.530Z,5.14
2023-03-11T00:05:41.254Z,5.09
2023-03-11T00:08:08.935Z,5.05
2023-03-11T00:10:36.473Z,5.06
2023-03-11T00:13:04.061Z,5.08
2023-03-11T00:15:31.785Z,5.07
2023-03-11T00:17:59.551Z,5.07
2023-03-11T00:20:27.262Z,5.05
2023-03-11T00:22:54.787Z,5.07
2023-03-11T00:25:22.297Z,5.12
2023-03-11T00:27:49.921Z,5.18
2023-03-11T00:30:17.533Z,5.18
2023-03-11T00:32:45.038Z,5.14
2023-03-11T00:35:12.975Z,5.07
2023-03-11T00:37:40.548Z,4.97
2023-03-11T00:40:11.066Z,4.91
2023-03-11T00:42:38.603Z,4.86
2023-03-11T00:45:06.136Z,4.80
2023-03-11T00:47:33.684Z,4.81
2023-03-11T00:50:01.384Z,4.82
2023-03-11T00:52:29.107Z,4.80
2023-03-11T00:54:56.597Z,4.82
2023-03-11T00:57:24.480Z,4.85
2023-03-11T00:59:52.552Z,4.88
2023-03-11T01:02:20.425Z,4.91
2023-03-11T01:04:48.119Z,4.93
2023-03-11T01:07:15.646Z,4.97
2023-03-11T01:09:43.200Z,5.03
2023-03-11T01:12:10.743Z,5.06
2023-03-11T01:14:38.529Z,5.09
2023-03-11T01:17:06.002Z,5.06
2023-03-11T01:19:33.552Z,4.96
2023-03-11T01:22:01.043Z,4.86
2023-03-11T01:24:28.586Z,4.81
2023-03-11T01:26:56.248Z,4.86
2023-03-11T01:29:23.807Z,4.92
2023-03-11T01:31:51.645Z,4.99
2023-03-11T01:34:19.258Z,5.09
2023-03-11T01:36:46.857Z,5.19
2023-03-11T01:39:18.285Z,5.26
2023-03-11T01:41:46.176Z,5.33
2023-03-11T01:44:13.693Z,5.35
2023-03-11T01:46:41.211Z,5.34
2023-03-11T01:49:08.864Z,5.35
2023-03-11T01:51:36.429Z,5.36
2023-03-11T01:54:03.901Z,5.43
2023-03-11T01:56:31.682Z,5.54
2023-03-11T01:58:59.602Z,5.64
2023-03-11T02:01:27.164Z,5.73
2023-03-11T02:03:54.890Z,5.79
2023-03-11T02:06:22.355Z,5.81
2023-03-11T02:08:49.812Z,5.84
2023-03-11T02:11:17.404Z,5.84
2023-03-11T02:13:44.918Z,5.83
2023-03-11T02:16:14.118Z,5.82
2023-03-11T02:18:41.918Z,5.78
2023-03-11T02:21:09.458Z,5.65
2023-03-11T02:23:36.993Z,5.46
2023-03-11T02:26:04.563Z,5.26
2023-03-11T02:28:32.201Z,5.11
2023-03-11T02:30:59.691Z,4.98
2023-03-11T02:33:27.284Z,4.87
2023-03-11T02:35:55.086Z,4.77
2023-03-11T02:38:22.791Z,4.69
2023-03-11T02:40:50.475Z,4.63
2023-03-11T02:43:18.018Z,4.61
2023-03-11T02:45:45.846Z,4.56
2023-03-11T02:48:13.630Z,4.49
2023-03-11T02:50:41.150Z,4.41
2023-03-11T02:53:08.702Z,4.32
2023-03-11T02:55:36.245Z,4.28
2023-03-11T02:58:03.764Z,4.23
2023-03-11T03:00:32.220Z,4.18
2023-03-11T03:02:59.805Z,4.16
2023-03-11T03:05:27.328Z,4.14
2023-03-11T03:07:54.930Z,4.16
2023-03-11T03:10:22.638Z,4.17
2023-03-11T03:12:50.290Z,4.18
2023-03-11T03:15:17.842Z,4.20
2023-03-11T03:17:46.310Z,4.18
2023-03-11T03:20:14.255Z,4.17
2023-03-11T03:22:41.981Z,4.17
2023-03-11T03:25:09.582Z,4.14
2023-03-11T03:27:37.063Z,4.10
2023-03-11T03:30:04.610Z,4.09
2023-03-11T03:32:32.341Z,4.07
2023-03-11T03:34:59.916Z,4.06
2023-03-11T03:37:27.602Z,4.06
2023-03-11T03:39:55.336Z,4.05
2023-03-11T03:42:25.151Z,4.07
2023-03-11T03:44:54.932Z,4.06
2023-03-11T03:47:22.453Z,4.05
2023-03-11T03:49:49.951Z,4.07
2023-03-11T03:52:17.565Z,4.08
2023-03-11T03:54:45.319Z,4.10
2023-03-11T03:57:12.825Z,4.11
2023-03-11T03:59:40.438Z,4.07
2023-03-11T04:02:08.015Z,4.06
2023-03-11T04:04:35.852Z,4.04
2023-03-11T04:07:03.325Z,4.03
2023-03-11T04:09:31.180Z,4.02
2023-03-11T04:11:59.983Z,4.01
2023-03-11T04:14:27.650Z,3.99
2023-03-11T04:16:55.218Z,3.99
2023-03-11T04:19:22.906Z,3.97
2023-03-11T04:21:51.949Z,3.95
2023-03-11T04:24:19.561Z,3.93
2023-03-11T04:26:47.129Z,3.91
2023-03-11T04:29:14.660Z,3.91
2023-03-11T04:31:42.176Z,3.89
2023-03-11T04:34:09.734Z,3.89
2023-03-11T04:36:37.343Z,3.89
2023-03-11T04:39:04.924Z,3.87
2023-03-11T04:41:32.560Z,3.85
2023-03-11T04:44:00.546Z,3.83
2023-03-11T04:46:28.247Z,3.80
2023-03-11T04:48:55.952Z,3.78
2023-03-11T04:51:23.466Z,3.74
2023-03-11T04:53:51.035Z,3.70
2023-03-11T04:56:18.475Z,3.65
2023-03-11T04:58:46.006Z,3.61
2023-03-11T05:01:13.804Z,3.57
2023-03-11T05:03:41.461Z,3.54
2023-03-11T05:06:09.281Z,3.51
2023-03-11T05:08:36.976Z,3.48
2023-03-11T05:11:04.440Z,3.45
2023-03-11T05:13:32.096Z,3.43
2023-03-11T05:15:59.738Z,3.40
2023-03-11T05:18:27.385Z,3.36
2023-03-11T05:20:55.073Z,3.30
2023-03-11T05:23:22.594Z,3.27
2023-03-11T05:25:50.183Z,3.25
2023-03-11T05:28:17.731Z,3.21
2023-03-11T05:30:45.369Z,3.15
2023-03-11T05:33:12.974Z,3.09
2023-03-11T05:35:40.529Z,3.03
2023-03-11T05:38:08.144Z,2.97
2023-03-11T05:40:35.669Z,2.87
2023-03-11T05:43:03.222Z,2.75
2023-03-11T05:45:30.734Z,2.51
2023-03-11T05:47:58.317Z,2.20
2023-03-11T05:50:26.032Z,1.96
2023-03-11T05:52:53.665Z,1.86
2023-03-11T05:55:21.161Z,1.76
2023-03-11T05:57:48.678Z,1.68
2023-03-11T06:00:16.186Z,1.59
2023-03-11T06:02:43.750Z,1.49
2023-03-11T06:05:13.498Z,1.43
2023-03-11T06:07:42.683Z,1.43
2023-03-11T06:10:10.358Z,1.44
2023-03-11T06:12:38.687Z,1.47
2023-03-11T06:15:06.704Z,1.50
2023-03-11T06:17:34.481Z,1.54
2023-03-11T06:20:02.023Z,1.60
2023-03-11T06:22:29.778Z,1.65
2023-03-11T06:24:57.378Z,1.70
2023-03-11T06:27:24.950Z,1.75
2023-03-11T06:29:52.594Z,1.79
2023-03-11T06:32:20.196Z,1.80
2023-03-11T06:34:47.790Z,1.82
2023-03-11T06:37:15.318Z,1.80
2023-03-11T06:39:42.823Z,1.79
2023-03-11T06:42:10.394Z,1.84
2023-03-11T06:44:38.230Z,1.86
2023-03-11T06:47:05.722Z,1.79
2023-03-11T06:49:33.268Z,1.74
2023-03-11T06:52:01.342Z,1.69
2023-03-11T06:54:29.275Z,1.63
2023-03-11T06:56:57.015Z,1.60
2023-03-11T06:59:24.614Z,1.57
2023-03-11T07:01:52.298Z,1.53
2023-03-11T07:04:19.817Z,1.46
2023-03-11T07:06:47.840Z,1.42
2023-03-11T07:09:15.467Z,1.40
2023-03-11T07:11:42.948Z,1.40
2023-03-11T07:14:10.446Z,1.38
2023-03-11T07:16:38.015Z,1.37
2023-03-11T07:19:05.605Z,1.37
2023-03-11T07:21:33.141Z,1.38
2023-03-11T07:24:00.596Z,1.38
2023-03-11T07:26:28.078Z,1.39
2023-03-11T07:28:55.841Z,1.42
2023-03-11T07:31:23.693Z,1.49
2023-03-11T07:33:51.411Z,1.67
2023-03-11T07:36:18.946Z,1.64
2023-03-11T07:38:46.597Z,1.55
2023-03-11T07:41:14.308Z,1.43
2023-03-11T07:43:41.884Z,1.35
2023-03-11T07:46:09.961Z,1.35
2023-03-11T07:48:37.610Z,1.35
2023-03-11T07:51:05.185Z,1.35
2023-03-11T07:53:32.858Z,1.32
2023-03-11T07:56:00.327Z,1.27
2023-03-11T07:58:28.031Z,1.24
2023-03-11T08:00:56.971Z,1.20
2023-03-11T08:03:24.451Z,1.17
2023-03-11T08:05:52.501Z,1.15
2023-03-11T08:08:20.047Z,1.14
2023-03-11T08:10:47.639Z,1.15
2023-03-11T08:13:15.328Z,1.16
2023-03-11T08:15:43.087Z,1.19
2023-03-11T08:18:11.136Z,1.18
2023-03-11T08:20:38.755Z,1.19
2023-03-11T08:23:06.360Z,1.21
2023-03-11T08:25:34.055Z,1.22
2023-03-11T08:28:01.611Z,1.24
2023-03-11T08:30:29.044Z,1.27
2023-03-11T08:32:56.859Z,1.32
2023-03-11T08:35:26.201Z,1.36
2023-03-11T08:37:53.946Z,1.39
2023-03-11T08:40:21.424Z,1.45
2023-03-11T08:42:48.878Z,1.47
2023-03-11T08:45:16.657Z,1.46
2023-03-11T08:47:44.635Z,1.47
2023-03-11T08:50:12.161Z,1.48
2023-03-11T08:52:39.634Z,1.49
2023-03-11T08:55:08.987Z,1.48
2023-03-11T08:57:38.011Z,1.45
2023-03-11T09:00:05.455Z,1.45
2023-03-11T09:02:33.078Z,1.45
2023-03-11T09:05:01.062Z,1.42
2023-03-11T09:07:28.852Z,1.35
2023-03-11T09:09:57.567Z,1.28
2023-03-11T09:12:25.092Z,1.25
2023-03-11T09:14:54.525Z,1.20
2023-03-11T09:17:22.249Z,1.17
2023-03-11T09:19:49.763Z,1.15
2023-03-11T09:22:17.654Z,1.13
2023-03-11T09:24:45.159Z,1.11
2023-03-11T09:27:13.650Z,1.08
2023-03-11T09:29:41.086Z,1.07
2023-03-11T09:32:08.537Z,1.06
2023-03-11T09:34:36.163Z,1.06
2023-03-11T09:37:03.773Z,1.05
2023-03-11T09:39:31.409Z,1.07
2023-03-11T09:41:59.469Z,1.20
2023-03-11T09:44:26.987Z,1.22
2023-03-11T09:46:55.694Z,1.20
2023-03-11T09:49:23.570Z,1.18
2023-03-11T09:51:51.023Z,1.18
2023-03-11T09:54:18.483Z,1.22
2023-03-11T09:56:45.976Z,1.27
2023-03-11T09:59:13.515Z,1.32
2023-03-11T10:01:42.665Z,1.38
2023-03-11T10:04:10.499Z,1.45
2023-03-11T10:06:37.957Z,1.55
2023-03-11T10:09:05.555Z,1.68
2023-03-11T10:11:33.153Z,1.71
2023-03-11T10:14:00.689Z,1.76
2023-03-11T10:16:28.454Z,1.77
2023-03-11T10:18:56.038Z,1.78
2023-03-11T10:21:25.585Z,1.80
2023-03-11T10:23:53.244Z,1.86
2023-03-11T10:26:20.753Z,1.91
2023-03-11T10:28:48.214Z,1.96
2023-03-11T10:31:18.839Z,1.99
2023-03-11T10:33:47.851Z,2.05
2023-03-11T10:36:15.523Z,2.19
2023-03-11T10:38:43.079Z,2.41
2023-03-11T10:41:10.584Z,2.72
2023-03-11T10:43:38.016Z,2.75
2023-03-11T10:46:05.501Z,2.71
2023-03-11T10:48:33.206Z,2.70
2023-03-11T10:51:01.064Z,2.68
2023-03-11T10:53:28.855Z,2.55
2023-03-11T10:55:56.402Z,2.45
2023-03-11T10:58:23.902Z,2.39
2023-03-11T11:00:51.447Z,2.30
2023-03-11T11:03:19.079Z,2.23
2023-03-11T11:05:46.859Z,2.14
2023-03-11T11:08:14.360Z,2.07
2023-03-11T11:10:41.997Z,1.99
2023-03-11T11:13:09.471Z,1.87
2023-03-11T11:15:37.021Z,1.74
2023-03-11T11:18:04.729Z,1.51
2023-03-11T11:20:32.212Z,1.21
2023-03-11T11:22:59.659Z,1.05
2023-03-11T11:25:27.305Z,1.00
2023-03-11T11:27:56.070Z,1.05
2023-03-11T11:30:23.602Z,1.14
2023-03-11T11:32:53.827Z,1.23
2023-03-11T11:35:21.505Z,1.28
2023-03-11T11:37:49.030Z,1.33
2023-03-11T11:40:16.850Z,1.37
2023-03-11T11:42:44.373Z,1.30
2023-03-11T11:45:11.900Z,1.21
2023-03-11T11:47:39.546Z,1.08
2023-03-11T11:50:07.258Z,0.93
2023-03-11T11:52:34.941Z,0.78
2023-03-11T11:55:02.585Z,0.68
2023-03-11T11:57:30.345Z,0.62
2023-03-11T11:59:57.894Z,0.58
2023-03-11T12:02:25.850Z,0.53
2023-03-11T12:04:53.858Z,0.50
2023-03-11T12:07:21.373Z,0.52
2023-03-11T12:09:49.059Z,0.48
2023-03-11T12:12:16.683Z,0.49
2023-03-11T12:14:44.206Z,0.54
2023-03-11T12:17:12.789Z,0.54
2023-03-11T12:19:40.376Z,0.44
2023-03-11T12:22:07.848Z,0.35
2023-03-11T12:24:35.364Z,0.29
2023-03-11T12:27:02.884Z,0.33
2023-03-11T12:29:30.489Z,0.32
2023-03-11T12:31:57.955Z,0.26
2023-03-11T12:34:25.477Z,0.24
2023-03-11T12:36:52.997Z,0.21
2023-03-11T12:39:20.551Z,0.14
2023-03-11T12:41:50.044Z,0.07
2023-03-11T12:44:17.500Z,-0.01
2023-03-11T12:46:45.057Z,-0.07
2023-03-11T12:49:12.579Z,-0.11
2023-03-11T12:51:40.101Z,-0.17
2023-03-11T12:54:07.784Z,-0.26
2023-03-11T12:59:01.519Z,-0.35
2023-03-11T13:01:29.233Z,-0.38
2023-03-11T13:03:58.433Z,-0.40
2023-03-11T13:06:25.972Z,-0.41
2023-03-11T13:08:54.777Z,-0.41
2023-03-11T13:11:22.605Z,-0.37
2023-03-11T13:13:50.899Z,-0.35
2023-03-11T13:16:18.537Z,-0.32
2023-03-11T13:18:46.747Z,-0.30
2023-03-11T13:21:14.234Z,-0.25
2023-03-11T13:23:41.886Z,-0.26
2023-03-11T13:26:09.455Z,-0.29
2023-03-11T13:28:37.022Z,-0.34
2023-03-11T13:31:04.597Z,-0.41
2023-03-11T13:33:32.293Z,-0.48
2023-03-11T13:36:00.231Z,-0.51
2023-03-11T13:38:28.064Z,-0.55
2023-03-11T13:40:55.710Z,-0.57
2023-03-11T13:43:23.558Z,-0.60
2023-03-11T13:45:52.155Z,-0.64
2023-03-11T13:48:19.873Z,-0.66
2023-03-11T13:50:48.091Z,-0.61
2023-03-11T13:53:15.739Z,-0.57
2023-03-11T13:55:43.694Z,-0.55
2023-03-11T13:58:11.365Z,-0.56
2023-03-11T14:00:39.539Z,-0.58
2023-03-11T14:03:07.325Z,-0.61
2023-03-11T14:05:35.789Z,-0.66
2023-03-11T14:08:03.375Z,-0.70
2023-03-11T14:10:33.534Z,-0.76
2023-03-11T14:13:01.065Z,-0.81
2023-03-11T14:15:28.763Z,-0.84
2023-03-11T14:17:56.332Z,-0.87
2023-03-11T14:20:25.350Z,-0.89
2023-03-11T14:22:53.316Z,-0.92
2023-03-11T14:25:20.904Z,-0.93
2023-03-11T14:27:48.544Z,-0.92
2023-03-11T14:30:16.369Z,-0.90
2023-03-11T14:32:44.207Z,-0.88
2023-03-11T14:35:12.353Z,-0.88
2023-03-11T14:37:40.149Z,-0.88
2023-03-11T14:40:07.832Z,-0.90
2023-03-11T14:42:35.696Z,-0.94
2023-03-11T14:45:05.328Z,-0.97
2023-03-11T14:47:32.898Z,-1.02
2023-03-11T14:50:00.441Z,-1.03
2023-03-11T14:52:28.107Z,-1.02
2023-03-11T14:54:55.936Z,-1.04
2023-03-11T14:57:23.664Z,-1.02
2023-03-11T14:59:51.604Z,-1.03
2023-03-11T15:02:19.251Z,-1.04
2023-03-11T15:04:46.986Z,-1.02
2023-03-11T15:07:14.778Z,-1.00
2023-03-11T15:09:42.511Z,-1.01
2023-03-11T15:12:10.200Z,-1.03
2023-03-11T15:14:38.232Z,-1.05
2023-03-11T15:17:06.185Z,-1.07
2023-03-11T15:19:34.711Z,-1.10
2023-03-11T15:22:02.400Z,-1.14
2023-03-11T15:24:30.038Z,-1.16
2023-03-11T15:26:57.868Z,-1.18
2023-03-11T15:29:25.669Z,-1.18
2023-03-11T15:31:53.156Z,-1.19
2023-03-11T15:34:20.744Z,-1.21
2023-03-11T15:36:48.470Z,-1.22
2023-03-11T15:39:16.222Z,-1.24
2023-03-11T15:41:45.531Z,-1.26
2023-03-11T15:44:13.141Z,-1.29
2023-03-11T15:46:40.744Z,-1.32
2023-03-11T15:49:12.451Z,-1.36
2023-03-11T15:51:40.034Z,-1.40
2023-03-11T15:54:07.599Z,-1.43
2023-03-11T15:56:35.783Z,-1.49
2023-03-11T15:59:04.050Z,-1.53
2023-03-11T16:01:31.767Z,-1.58
2023-03-11T16:03:59.801Z,-1.62
2023-03-11T16:06:27.529Z,-1.66
2023-03-11T16:08:55.155Z,-1.67
2023-03-11T16:11:22.651Z,-1.67
2023-03-11T16:13:50.253Z,-1.67
2023-03-11T16:16:17.976Z,-1.69
2023-03-11T16:18:45.712Z,-1.70
2023-03-11T16:21:13.305Z,-1.70
2023-03-11T16:23:50.992Z,-1.70
2023-03-11T16:26:20.643Z,-1.72
2023-03-11T16:28:48.352Z,-1.70
2023-03-11T16:31:15.899Z,-1.72
2023-03-11T16:33:43.484Z,-1.73
2023-03-11T16:36:11.151Z,-1.75
2023-03-11T16:38:38.750Z,-1.73
2023-03-11T16:41:06.744Z,-1.73
2023-03-11T16:43:34.430Z,-1.72
2023-03-11T16:46:02.668Z,-1.70
2023-03-11T16:48:30.314Z,-1.68
2023-03-11T16:50:57.838Z,-1.69
2023-03-11T16:53:26.296Z,-1.70
2023-03-11T16:55:53.945Z,-1.73
2023-03-11T16:58:21.750Z,-1.73
2023-03-11T17:00:49.471Z,-1.72
2023-03-11T17:03:21.077Z,-1.72
2023-03-11T17:05:49.210Z,-1.73
2023-03-11T17:08:18.378Z,-1.76
2023-03-11T17:10:46.809Z,-1.80
2023-03-11T17:13:17.102Z,-1.84
2023-03-11T17:15:47.320Z,-1.87
2023-03-11T17:18:14.881Z,-1.89
2023-03-11T17:20:45.807Z,-1.87
2023-03-11T17:23:13.436Z,-1.86
2023-03-11T17:25:41.986Z,-1.82
2023-03-11T17:28:09.924Z,-1.84
2023-03-11T17:30:39.602Z,-1.86
2023-03-11T17:33:07.368Z,-1.88
2023-03-11T17:35:35.080Z,-1.87
2023-03-11T17:38:02.967Z,-1.87
2023-03-11T17:40:31.771Z,-1.90
2023-03-11T17:42:59.829Z,-1.93
2023-03-11T17:45:27.567Z,-1.95
2023-03-11T17:47:55.225Z,-1.94
2023-03-11T17:50:23.067Z,-1.96
2023-03-11T17:52:50.907Z,-1.98
2023-03-11T17:55:18.686Z,-1.99
2023-03-11T17:57:47.085Z,-2.00
2023-03-11T18:00:15.415Z,-2.08
2023-03-11T18:02:43.382Z,-2.15
2023-03-11T18:05:11.259Z,-2.23
2023-03-11T18:07:39.449Z,-2.31
2023-03-11T18:10:09.662Z,-2.36
2023-03-11T18:12:37.646Z,-2.37
2023-03-11T18:15:06.487Z,-2.36
2023-03-11T18:17:33.979Z,-2.36
2023-03-11T18:20:02.255Z,-2.35
2023-03-11T18:22:29.961Z,-2.35
2023-03-11T18:24:57.814Z,-2.34
2023-03-11T18:27:26.062Z,-2.35
2023-03-11T18:29:53.744Z,-2.36
2023-03-11T18:32:21.475Z,-2.37
2023-03-11T18:34:50.066Z,-2.39
2023-03-11T18:37:17.660Z,-2.42
2023-03-11T18:39:45.230Z,-2.44
2023-03-11T18:42:14.299Z,-2.45
2023-03-11T18:44:42.337Z,-2.47
2023-03-11T18:47:09.916Z,-2.50
2023-03-11T18:49:37.953Z,-2.53
2023-03-11T18:52:05.801Z,-2.60
2023-03-11T18:54:33.321Z,-2.62
2023-03-11T18:57:01.075Z,-2.62
2023-03-11T18:59:28.776Z,-2.62
2023-03-11T19:01:56.412Z,-2.62
2023-03-11T19:04:24.265Z,-2.60
2023-03-11T19:06:52.130Z,-2.58
2023-03-11T19:09:19.960Z,-2.59
2023-03-11T19:11:47.482Z,-2.57
2023-03-11T19:14:15.108Z,-2.56
2023-03-11T19:16:42.886Z,-2.56
2023-03-11T19:19:11.906Z,-2.57
2023-03-11T19:21:39.810Z,-2.58
2023-03-11T19:24:07.433Z,-2.59
2023-03-11T19:26:44.830Z,-2.61
2023-03-11T19:29:14.260Z,-2.61
2023-03-11T19:31:43.808Z,-2.61
2023-03-11T19:34:21.867Z,-2.60
2023-03-11T19:36:50.212Z,-2.61
2023-03-11T19:39:18.117Z,-2.62
2023-03-11T19:41:46.099Z,-2.62
2023-03-11T19:44:13.862Z,-2.59
2023-03-11T19:46:41.545Z,-2.56
2023-03-11T19:49:09.218Z,-2.54
2023-03-11T19:51:49.506Z,-2.52
2023-03-11T19:54:18.086Z,-2.52
2023-03-11T19:56:45.813Z,-2.53
2023-03-11T19:59:14.297Z,-2.53
2023-03-11T20:01:44.967Z,-2.53
2023-03-11T20:04:15.476Z,-2.55
2023-03-11T20:06:43.829Z,-2.55
2023-03-11T20:09:12.802Z,-2.55
2023-03-11T20:11:40.903Z,-2.55
2023-03-11T20:14:08.502Z,-2.58
2023-03-11T20:16:36.314Z,-2.58
2023-03-11T20:19:04.556Z,-2.62
2023-03-11T20:21:32.538Z,-2.63
2023-03-11T20:24:02.589Z,-2.62
2023-03-11T20:26:30.339Z,-2.55
2023-03-11T20:28:58.376Z,-2.59
2023-03-11T20:31:26.705Z,-2.61
2023-03-11T20:33:54.692Z,-2.65
2023-03-11T20:36:22.403Z,-2.68
2023-03-11T20:38:50.266Z,-2.68
2023-03-11T20:41:18.003Z,-2.70
2023-03-11T20:43:45.704Z,-2.69
2023-03-11T20:46:13.468Z,-2.70
2023-03-11T20:48:41.299Z,-2.70
2023-03-11T20:51:09.147Z,-2.68
2023-03-11T20:53:37.043Z,-2.70
2023-03-11T20:56:04.904Z,-2.68
2023-03-11T20:58:32.647Z,-2.68
2023-03-11T21:01:00.617Z,-2.66
2023-03-11T21:03:28.783Z,-2.66
2023-03-11T21:05:56.785Z,-2.66
2023-03-11T21:08:25.151Z,-2.65
2023-03-11T21:10:52.921Z,-2.65
2023-03-11T21:13:20.642Z,-2.65
2023-03-11T21:15:48.541Z,-2.65
2023-03-11T21:18:16.392Z,-2.67
2023-03-11T21:20:44.017Z,-2.69
2023-03-11T21:23:11.632Z,-2.72
2023-03-11T21:25:42.642Z,-2.74
2023-03-11T21:28:10.310Z,-2.76
2023-03-11T21:30:37.937Z,-2.77
2023-03-11T21:33:05.785Z,-2.79
2023-03-11T21:35:33.400Z,-2.80
2023-03-11T21:38:01.181Z,-2.81
2023-03-11T21:40:28.960Z,-2.83
2023-03-11T21:42:56.563Z,-2.83
2023-03-11T21:45:24.548Z,-2.84
2023-03-11T21:47:52.345Z,-2.86
2023-03-11T21:50:20.025Z,-2.87
2023-03-11T21:52:47.834Z,-2.87
2023-03-11T21:55:15.674Z,-2.90
2023-03-11T21:57:43.332Z,-2.90
2023-03-11T22:00:10.985Z,-2.90
2023-03-11T22:02:38.633Z,-2.87
2023-03-11T22:05:06.964Z,-2.83
2023-03-11T22:07:34.695Z,-2.78
2023-03-11T22:10:02.565Z,-2.76
2023-03-11T22:12:30.756Z,-2.74
2023-03-11T22:14:58.378Z,-2.75
2023-03-11T22:17:26.148Z,-2.75
2023-03-11T22:19:53.713Z,-2.75
2023-03-11T22:22:21.299Z,-2.73
2023-03-11T22:24:48.839Z,-2.74
2023-03-11T22:27:16.382Z,-2.76
2023-03-11T22:29:44.587Z,-2.79
2023-03-11T22:32:12.101Z,-2.82
2023-03-11T22:34:39.941Z,-2.85
2023-03-11T22:37:07.501Z,-2.85
2023-03-11T22:39:34.976Z,-2.86
2023-03-11T22:42:02.511Z,-2.86
2023-03-11T22:44:30.077Z,-2.84
2023-03-11T22:46:58.197Z,-2.82
2023-03-11T22:49:25.771Z,-2.78
2023-03-11T22:51:53.548Z,-2.75
2023-03-11T22:54:23.605Z,-2.73
2023-03-11T22:56:51.711Z,-2.70
2023-03-11T22:59:19.326Z,-2.68
2023-03-11T23:01:49.180Z,-2.64
2023-03-11T23:04:17.209Z,-2.62
2023-03-11T23:06:44.890Z,-2.61
2023-03-11T23:09:12.343Z,-2.58
2023-03-11T23:11:39.951Z,-2.56
2023-03-11T23:14:11.123Z,-2.59
2023-03-11T23:16:38.751Z,-2.61
2023-03-11T23:19:06.208Z,-2.63
2023-03-11T23:21:33.812Z,-2.63
2023-03-11T23:24:01.681Z,-2.64
2023-03-11T23:26:29.199Z,-2.62
2023-03-11T23:28:56.798Z,-2.64
2023-03-11T23:31:24.489Z,-2.64
2023-03-11T23:33:52.253Z,-2.61
2023-03-11T23:36:19.820Z,-2.61
2023-03-11T23:38:47.467Z,-2.61
2023-03-11T23:41:14.988Z,-2.61
2023-03-11T23:43:48.024Z,-2.63
2023-03-11T23:46:22.838Z,-2.63
2023-03-11T23:49:03.667Z,-2.64
2023-03-11T23:51:51.912Z,-2.66
2023-03-11T23:54:19.616Z,-2.64
2023-03-11T23:56:47.267Z,-2.61
2023-03-11T23:59:14.805Z,-2.56
